Data for 03/12/2010

Time Sea-Level Adjusted Pressure Absolute Pressure Temperature Relative Humidity Dew Point   
(mb) (inHg) (mb) (inHg) (C) (F) (%) (C) (F)
00:05 1017 30.03 846 24.98 -1 30.2 49 -10.5 13.1
00:10 1017 30.03 846 24.98 -0.9 30.4 48 -10.6 12.9
00:15 1017 30.03 846 24.98 -0.8 30.5 48 -10.4 13.3
00:20 1017 30.03 846 24.98 -0.8 30.6 47 -10.7 12.8
00:25 1017 30.03 846 24.98 -0.7 30.7 48 -10.5 13.2
00:30 1017 30.03 846 24.98 -0.8 30.6 48 -10.5 13
00:35 1017 30.03 846 24.98 -0.9 30.4 49 -10.4 13.3
00:40 1017 30.03 846 24.98 -1.2 29.8 50 -10.4 13.2
00:45 1017 30.03 846 24.98 -1.4 29.4 50 -10.5 13.2
00:50 1017 30.03 846 24.98 -1.5 29.3 51 -10.5 13.1
00:55 1017 30.03 846 24.98 -1.6 29.2 51 -10.4 13.3
01:00 1017 30.03 846 24.98 -1.8 28.8 52 -10.5 13.2
01:05 1017 30.03 846 24.98 -1.6 29.1 51 -10.5 13.1
01:10 1017 30.03 846 24.98 -1.5 29.3 50 -10.7 12.8
01:15 1017 30.03 846 24.98 -1.3 29.6 50 -10.5 13.2
01:20 1017 30.03 846 24.98 -1.5 29.4 51 -10.4 13.2
01:25 1017 30.03 846 24.98 -1.6 29.1 51 -10.4 13.3
01:30 1017 30.03 846 24.98 -1.6 29.1 51 -10.6 12.9
01:35 1017 30.03 846 24.98 -1.5 29.3 51 -10.5 13.1
01:40 1017 30.03 846 24.98 -1.6 29 52 -10.3 13.4
01:45 1017 30.03 846 24.98 -1.9 28.6 53 -10.3 13.4
01:50 1017 30.03 847 25.01 -1.9 28.5 53 -10.3 13.4
01:55 1017 30.03 846 24.98 -1.9 28.5 52 -10.4 13.2
02:00 1017 30.03 846 24.98 -2 28.3 53 -10.3 13.5
02:05 1017 30.03 846 24.98 -2.4 27.6 55 -10.2 13.6
02:10 1017 30.03 847 25.01 -2.6 27.3 54 -10.6 12.9
02:15 1017 30.03 847 25.01 -2.7 27.1 55 -10.5 13.1
02:20 1017 30.03 847 25.01 -2.5 27.4 54 -10.6 12.9
02:25 1017 30.03 847 25.01 -2.1 28.1 53 -10.6 12.9
02:30 1017 30.03 847 25.01 -1.9 28.6 52 -10.4 13.2
02:35 1017 30.03 847 25.01 -2 28.4 53 -10.3 13.4
02:40 1017 30.03 847 25.01 -2.3 27.9 54 -10.4 13.3
02:45 1017 30.03 847 25.01 -2.6 27.3 55 -10.5 13.2
02:50 1017 30.03 847 25.01 -2.7 27.2 55 -10.5 13.2
02:55 1017 30.03 847 25.01 -2.7 27.1 55 -10.6 12.9
03:00 1017 30.03 847 25.01 -2.7 27.1 56 -10.4 13.2
03:05 1017 30.03 847 25.01 -2.9 26.8 57 -10.2 13.7
03:10 1017 30.03 847 25.01 -3.1 26.4 57 -10.4 13.3
03:15 1017 30.03 847 25.01 -3.1 26.4 58 -10.1 13.7
03:20 1017 30.03 847 25.01 -3.3 26.1 57 -10.6 13
03:25 1017 30.03 847 25.01 -3.3 26.1 57 -10.5 13
03:30 1017 30.03 847 25.01 -3.4 25.9 58 -10.4 13.2
03:35 1017 30.03 847 25.01 -3.3 26.1 57 -10.7 12.7
03:40 1017 30.03 847 25.01 -3.4 25.9 58 -10.6 12.9
03:45 1017 30.03 847 25.01 -3.4 25.8 57 -10.8 12.5
03:50 1018 30.06 847 25.01 -3.2 26.3 56 -10.8 12.6
03:55 1018 30.06 847 25.01 -3.1 26.4 56 -10.7 12.7
04:00 1018 30.06 847 25.01 -3.3 26.1 57 -10.7 12.8
04:05 1018 30.06 847 25.01 -3.6 25.5 58 -10.7 12.7
04:10 1018 30.06 847 25.01 -3.7 25.3 59 -10.7 12.8
04:15 1017 30.03 847 25.01 -3.6 25.5 58 -10.8 12.6
04:20 1017 30.03 847 25.01 -3.5 25.7 57 -10.9 12.5
04:25 1017 30.03 847 25.01 -3.3 26.1 57 -10.7 12.7
04:30 1017 30.03 847 25.01 -3.3 26.1 57 -10.6 12.9
04:35 1018 30.06 847 25.01 -3.6 25.6 57 -10.9 12.4
04:40 1018 30.06 847 25.01 -3.2 26.2 56 -10.7 12.7
04:45 1018 30.06 847 25.01 -3.5 25.7 58 -10.7 12.8
04:50 1018 30.06 847 25.01 -3.7 25.4 58 -10.8 12.6
04:55 1018 30.06 847 25.01 -3.7 25.4 58 -10.8 12.6
05:00 1018 30.06 847 25.01 -3.6 25.6 58 -10.7 12.7
05:05 1018 30.06 847 25.01 -3.5 25.7 58 -10.6 12.9
05:10 1018 30.06 847 25.01 -3.5 25.6 59 -10.5 13.2
05:15 1018 30.06 847 25.01 -3.5 25.7 59 -10.5 13.2
05:20 1018 30.06 847 25.01 -3.7 25.4 60 -10.4 13.2
05:25 1018 30.06 847 25.01 -3.7 25.3 60 -10.4 13.3
05:30 1018 30.06 847 25.01 -3.6 25.5 60 -10.4 13.3
05:35 1018 30.06 847 25.01 -3.7 25.4 60 -10.4 13.2
05:40 1018 30.06 847 25.01 -3.8 25.2 60 -10.3 13.4
05:45 1018 30.06 847 25.01 -3.9 24.9 61 -10.3 13.5
05:50 1018 30.06 847 25.01 -4 24.9 62 -10.2 13.6
05:55 1018 30.06 847 25.01 -4.1 24.7 62 -10.3 13.5
06:00 1018 30.06 847 25.01 -4.1 24.7 63 -10.2 13.7
06:05 1018 30.06 847 25.01 -4 24.7 63 -10.1 13.9
06:10 1018 30.06 847 25.01 -4.1 24.6 63 -10.1 13.8
06:15 1018 30.06 847 25.01 -4 24.8 63 -10.1 13.8
06:20 1018 30.06 847 25.01 -3.8 25.2 62 -10 14
06:25 1018 30.06 847 25.01 -3.7 25.4 62 -10 14
06:30 1018 30.06 847 25.01 -3.6 25.5 61 -10 14
06:35 1018 30.06 847 25.01 -3.8 25.2 62 -10 14
06:40 1018 30.06 847 25.01 -3.8 25.1 62 -10.1 13.9
06:45 1018 30.06 847 25.01 -3.8 25.2 62 -10 13.9
06:50 1018 30.06 847 25.01 -3.9 25 63 -10 14
06:55 1018 30.06 847 25.01 -3.8 25.1 62 -10.1 13.9
07:00 1017 30.03 847 25.01 -3.5 25.7 61 -10 14
07:05 1017 30.03 847 25.01 -3.2 26.2 60 -10 14
07:10 1017 30.03 847 25.01 -2.9 26.7 58 -10 14
07:15 1017 30.03 847 25.01 -2.8 26.9 59 -9.8 14.4
07:20 1017 30.03 847 25.01 -2.8 27 59 -9.8 14.3
07:25 1017 30.03 847 25.01 -2.7 27.1 58 -9.8 14.4
07:30 1017 30.03 847 25.01 -2.7 27.2 59 -9.6 14.7
07:35 1017 30.03 847 25.01 -2.8 26.9 60 -9.7 14.6
07:40 1017 30.03 847 25.01 -3.3 26.1 61 -9.7 14.5
07:45 1017 30.03 847 25.01 -3.5 25.8 62 -9.7 14.6
07:50 1017 30.03 846 24.98 -3.3 26 62 -9.6 14.8
07:55 1017 30.03 847 25.01 -3.1 26.4 60 -9.9 14.2
08:00 1017 30.03 847 25.01 -2.3 27.9 57 -9.7 14.5
08:05 1018 30.06 847 25.01 -1.9 28.7 56 -9.5 15
08:10 1018 30.06 847 25.01 -1.4 29.4 55 -9.4 15.1
08:15 1018 30.06 847 25.01 -0.8 30.6 53 -9.1 15.6
08:20 1017 30.03 847 25.01 -0.8 30.6 54 -9 15.8
08:25 1017 30.03 847 25.01 -1 30.1 54 -9.2 15.4
08:30 1017 30.03 847 25.01 -0.8 30.5 53 -9.3 15.2
08:35 1018 30.06 847 25.01 -0.4 31.3 51 -9.2 15.4
08:40 1017 30.03 847 25.01 0.2 32.4 49 -9.4 15.1
08:45 1017 30.03 847 25.01 0.7 33.2 48 -9.2 15.4
08:50 1017 30.03 847 25.01 0.9 33.6 48 -8.9 15.9
08:55 1017 30.03 847 25.01 0.4 32.7 50 -9 15.8
09:00 1017 30.03 847 25.01 0.4 32.7 49 -9 15.7
09:05 1017 30.03 847 25.01 0.8 33.4 49 -8.9 16.1
09:10 1018 30.06 847 25.01 1.3 34.4 46 -9.1 15.7
09:15 1018 30.06 847 25.01 2 35.5 45 -8.6 16.4
09:20 1018 30.06 847 25.01 2.3 36.1 44 -8.8 16.1
09:25 1018 30.06 847 25.01 2.4 36.3 44 -8.7 16.4
09:30 1017 30.03 847 25.01 2.6 36.7 42 -9.2 15.5
09:35 1017 30.03 847 25.01 2.6 36.7 43 -8.8 16.1
09:40 1018 30.06 847 25.01 2.6 36.6 42 -9.1 15.7
09:45 1018 30.06 847 25.01 3 37.3 45 -7.9 17.9
09:50 1018 30.06 847 25.01 2.5 36.5 45 -8.2 17.3
09:55 1018 30.06 847 25.01 2.7 36.8 47 -7.7 18.2
10:00 1018 30.06 847 25.01 2.5 36.4 47 -7.7 18.1
10:05 1018 30.06 847 25.01 2.2 35.9 47 -8 17.6
10:10 1018 30.06 847 25.01 1.9 35.5 47 -8.1 17.3
10:15 1018 30.06 847 25.01 2.4 36.4 44 -8.5 16.6
10:20 1018 30.06 847 25.01 3.1 37.5 42 -8.7 16.3
10:25 1018 30.06 847 25.01 2.8 37 45 -8 17.5
10:30 1018 30.06 847 25.01 1.9 35.5 46 -8.5 16.6
10:35 1018 30.06 847 25.01 2 35.7 44 -8.9 16
10:40 1018 30.06 847 25.01 2.8 37 43 -8.6 16.5
10:45 1018 30.06 847 25.01 3.5 38.2 40 -8.9 15.9
10:50 1018 30.06 847 25.01 2.7 36.8 41 -9.2 15.4
10:55 1018 30.06 847 25.01 3.5 38.4 37 -9.8 14.4
11:00 1018 30.06 847 25.01 3.8 38.8 39 -9 15.7
11:05 1017 30.03 847 25.01 4.4 39.8 35 -9.6 14.7
11:10 1017 30.03 847 25.01 4.1 39.3 38 -9 15.9
11:15 1017 30.03 847 25.01 5 41.1 34 -9.5 14.9
11:20 1017 30.03 846 24.98 4.7 40.4 35 -9.4 15
11:25 1017 30.03 846 24.98 5.6 42 32 -9.9 14.2
11:30 1017 30.03 846 24.98 5.9 42.7 34 -9 15.9
11:35 1017 30.03 846 24.98 5.5 41.9 33 -9.4 15.1
11:40 1017 30.03 846 24.98 5.8 42.5 35 -8.3 17
11:45 1017 30.03 846 24.98 6.6 43.8 32 -8.8 16.2
11:50 1017 30.03 846 24.98 7.6 45.6 31 -8.3 17
11:55 1017 30.03 846 24.98 7.3 45.2 31 -8.6 16.5
12:00 1017 30.03 846 24.98 7.5 45.5 30 -8.9 16
12:05 1017 30.03 846 24.98 7.8 46 31 -8.5 16.7
12:10 1017 30.03 846 24.98 8.5 47.3 30 -8.3 17
12:15 1017 30.03 846 24.98 8 46.3 33 -7.3 18.9
12:20 1016 30 846 24.98 7.2 44.9 32 -8.3 17
12:25 1016 30 846 24.98 7 44.6 37 -6.8 19.7
12:30 1016 30 845 24.95 5.6 42.1 39 -7.4 18.8
12:35 1016 30 845 24.95 5.8 42.5 38 -7.5 18.6
12:40 1016 30 845 24.95 5.5 41.9 39 -7.3 18.9
12:45 1016 30 845 24.95 5.5 41.8 37 -8 17.6
12:50 1016 30 845 24.95 6.8 44.2 35 -7.5 18.4
12:55 1016 30 845 24.95 7.4 45.3 35 -7.2 19
13:00 1016 30 845 24.95 7.4 45.3 32 -8.4 17
13:05 1016 30 845 24.95 8.3 46.9 30 -8.1 17.4
13:10 1016 30 845 24.95 8.7 47.6 30 -7.8 18
13:15 1015 29.97 845 24.95 8.7 47.7 29 -8.2 17.2
13:20 1015 29.97 844 24.92 8.8 47.9 31 -7.5 18.5
13:25 1015 29.97 844 24.92 8.8 47.8 31 -7.6 18.3
13:30 1015 29.97 844 24.92 8.7 47.6 31 -7.5 18.5
13:35 1015 29.97 844 24.92 9 48.2 30 -7.8 18
13:40 1015 29.97 844 24.92 9.4 48.9 29 -7.6 18.3
13:45 1015 29.97 844 24.92 9.3 48.7 31 -7.1 19.2
13:50 1015 29.97 844 24.92 8.2 46.7 34 -6.9 19.5
13:55 1015 29.97 844 24.92 7.7 45.8 36 -6.4 20.5
14:00 1015 29.97 844 24.92 7.6 45.7 35 -6.9 19.6
14:05 1014 29.94 844 24.92 7.7 45.9 34 -7.3 18.8
14:10 1014 29.94 844 24.92 7.9 46.1 34 -6.9 19.7
14:15 1014 29.94 844 24.92 7.5 45.4 37 -6.4 20.6
14:20 1014 29.94 843 24.89 6.7 44 38 -6.6 20.1
14:25 1014 29.94 843 24.89 7.6 45.6 35 -7 19.5
14:30 1014 29.94 843 24.89 7.5 45.5 36 -6.6 20.1
14:35 1014 29.94 843 24.89 7.7 45.9 35 -6.9 19.5
14:40 1014 29.94 843 24.89 8.2 46.7 33 -7 19.4
14:45 1014 29.94 843 24.89 8.3 47 33 -7 19.4
14:50 1014 29.94 843 24.89 8.7 47.7 34 -6.3 20.6
14:55 1014 29.94 843 24.89 9.3 48.7 32 -6.4 20.5
15:00 1013 29.91 843 24.89 10.2 50.4 31 -6.1 20.9
15:05 1013 29.91 843 24.89 10.7 51.3 30 -6.1 21.1
15:10 1013 29.91 843 24.89 10.7 51.3 32 -5.2 22.6
15:15 1013 29.91 842 24.86 9.2 48.6 36 -5.1 22.8
15:20 1013 29.91 842 24.86 9.1 48.4 34 -6 21.1
15:25 1013 29.91 842 24.86 9.1 48.4 34 -6.1 21.1
15:30 1013 29.91 842 24.86 8.9 48.1 35 -5.7 21.8
15:35 1013 29.91 842 24.86 8.9 47.9 34 -6 21.3
15:40 1013 29.91 842 24.86 8.9 47.9 34 -6.2 20.8
15:45 1013 29.91 842 24.86 8.5 47.3 34 -6.4 20.5
15:50 1013 29.91 842 24.86 8.4 47.1 35 -6.2 20.8
15:55 1013 29.91 842 24.86 8.7 47.6 35 -5.8 21.6
16:00 1013 29.91 842 24.86 7.2 44.9 40 -5.4 22.3
16:05 1013 29.91 842 24.86 6.6 43.8 41 -5.9 21.4
16:10 1013 29.91 842 24.86 6.4 43.5 43 -5.3 22.4
16:15 1012 29.88 842 24.86 6.4 43.5 41 -5.8 21.6
16:20 1012 29.88 842 24.86 7.1 44.7 39 -6 21.2
16:25 1012 29.88 841 24.83 7 44.6 40 -5.7 21.8
16:30 1012 29.88 841 24.83 6.6 43.9 39 -6.4 20.6
16:35 1012 29.88 841 24.83 6.8 44.3 38 -6.4 20.5
16:40 1012 29.88 841 24.83 6.5 43.8 39 -6.4 20.5
16:45 1012 29.88 841 24.83 7 44.6 37 -6.9 19.7
16:50 1012 29.88 841 24.83 7.6 45.6 37 -6.1 20.9
16:55 1012 29.88 841 24.83 7.1 44.8 38 -6.2 20.9
17:00 1012 29.88 841 24.83 7.5 45.4 36 -6.6 20.2
17:05 1012 29.88 841 24.83 7.5 45.5 40 -5.2 22.6
17:10 1012 29.88 841 24.83 7.1 44.7 37 -6.5 20.2
17:15 1012 29.88 841 24.83 7 44.6 39 -5.9 21.4
17:20 1012 29.88 841 24.83 7.2 45 40 -5.5 22.1
17:25 1012 29.88 841 24.83 7.4 45.3 39 -5.7 21.8
17:30 1011 29.85 841 24.83 7.3 45.1 36 -6.8 19.8
17:35 1011 29.85 841 24.83 7.2 45 36 -6.7 19.9
17:40 1011 29.85 841 24.83 6.8 44.2 40 -6 21.2
17:45 1011 29.85 841 24.83 6.9 44.4 37 -6.7 20
17:50 1011 29.85 841 24.83 6.8 44.2 38 -6.5 20.2
17:55 1012 29.88 841 24.83 6.5 43.7 38 -6.7 19.9
18:00 1011 29.85 841 24.83 6.4 43.5 39 -6.7 20
18:05 1011 29.85 841 24.83 6.7 44 39 -6.2 20.9
18:10 1011 29.85 841 24.83 6.6 43.8 41 -5.9 21.4
18:15 1011 29.85 841 24.83 6.4 43.6 43 -5.3 22.4
18:20 1011 29.85 841 24.83 6.3 43.3 41 -6.1 21
18:25 1011 29.85 841 24.83 6.3 43.3 42 -5.6 21.9
18:30 1011 29.85 841 24.83 6.1 42.9 44 -5.4 22.4
18:35 1011 29.85 841 24.83 6.1 43 43 -5.6 21.9
18:40 1011 29.85 841 24.83 6.1 43 43 -5.6 21.9
18:45 1011 29.85 840 24.81 6 42.7 46 -4.9 23.3
18:50 1011 29.85 840 24.81 5.7 42.2 45 -5.4 22.3
18:55 1011 29.85 840 24.81 5.5 41.9 50 -4.1 24.7
19:00 1011 29.85 840 24.81 4.9 40.9 48 -5.3 22.5
19:05 1011 29.85 840 24.81 5.2 41.4 45 -5.7 21.7
19:10 1011 29.85 840 24.81 5.2 41.4 48 -5 22.9
19:15 1011 29.85 840 24.81 5.3 41.5 48 -4.9 23.2
19:20 1011 29.85 840 24.81 5.2 41.4 49 -4.7 23.5
19:25 1011 29.85 840 24.81 4.7 40.5 49 -5 23
19:30 1011 29.85 840 24.81 4.9 40.7 43 -6.8 19.7
19:35 1011 29.85 840 24.81 5.4 41.7 49 -4.5 23.9
19:40 1011 29.85 840 24.81 4.6 40.2 47 -5.7 21.7
19:45 1011 29.85 840 24.81 5 41 48 -5 22.9
19:50 1011 29.85 840 24.81 5.2 41.4 44 -6.1 21.1
19:55 1011 29.85 840 24.81 5.3 41.6 43 -6.3 20.6
20:00 1011 29.85 840 24.81 5.4 41.7 46 -5.2 22.6
20:05 1011 29.85 840 24.81 4.8 40.6 43 -6.7 19.9
20:10 1011 29.85 840 24.81 6.1 43.1 32 -9.4 15.1
20:15 1011 29.85 840 24.81 7.4 45.4 34 -7.3 18.8
20:20 1011 29.85 840 24.81 6.3 43.3 37 -7.3 18.9
20:25 1011 29.85 840 24.81 6.1 43.1 34 -8.5 16.7
20:30 1011 29.85 840 24.81 6.3 43.4 37 -7.1 19.2
20:35 1011 29.85 840 24.81 6.6 44 37 -7.2 19.1
20:40 1011 29.85 840 24.81 6 42.9 39 -6.8 19.8
20:45 1011 29.85 840 24.81 5.8 42.4 37 -7.7 18.1
20:50 1011 29.85 840 24.81 6 42.8 38 -7.3 18.8
20:55 1011 29.85 840 24.81 6 42.8 36 -7.9 17.8
21:00 1011 29.85 840 24.81 6.1 42.9 34 -8.6 16.5
21:05 1011 29.85 840 24.81 6.1 43 38 -7.3 18.9
21:10 1010 29.83 840 24.81 5.8 42.4 34 -9.1 15.7
21:15 1010 29.83 840 24.81 6.3 43.3 36 -7.8 18
21:20 1010 29.83 840 24.81 6.1 42.9 36 -8 17.6
21:25 1010 29.83 840 24.81 5.9 42.6 36 -8.2 17.2
21:30 1010 29.83 840 24.81 5.9 42.6 36 -8.2 17.2
21:35 1010 29.83 839 24.78 6 42.7 34 -8.7 16.3
21:40 1010 29.83 839 24.78 5.9 42.7 37 -7.8 17.9
21:45 1010 29.83 839 24.78 5.5 41.9 37 -8 17.5
21:50 1010 29.83 839 24.78 5.5 41.8 37 -8.1 17.4
21:55 1010 29.83 839 24.78 5.3 41.5 38 -7.8 17.9
22:00 1010 29.83 839 24.78 5.2 41.4 38 -7.9 17.8
22:05 1010 29.83 839 24.78 5.2 41.3 38 -7.9 17.9
22:10 1010 29.83 839 24.78 5.1 41.2 39 -7.8 17.9
22:15 1010 29.83 839 24.78 5.2 41.3 39 -7.8 17.9
22:20 1010 29.83 839 24.78 5.2 41.3 39 -7.8 17.9
22:25 1010 29.83 839 24.78 5.1 41.3 38 -8 17.7
22:30 1010 29.83 839 24.78 5.3 41.5 37 -8.2 17.2
22:35 1010 29.83 839 24.78 5.4 41.8 38 -7.9 17.8
22:40 1010 29.83 839 24.78 5.4 41.8 34 -9 15.7
22:45 1010 29.83 839 24.78 6.8 44.3 32 -8.8 16.2
22:50 1010 29.83 839 24.78 6.4 43.5 35 -7.8 18
22:55 1010 29.83 839 24.78 5.9 42.6 35 -8.3 17
23:00 1009 29.8 839 24.78 6 42.9 36 -8 17.5
23:05 1010 29.83 839 24.78 5.9 42.6 37 -7.8 18
23:10 1010 29.83 839 24.78 5.8 42.5 37 -7.9 17.8
23:15 1009 29.8 839 24.78 5.8 42.4 39 -7.2 19.1
23:20 1009 29.8 839 24.78 5.6 42.1 36 -8.3 17
23:25 1009 29.8 839 24.78 5.9 42.7 36 -8 17.5
23:30 1010 29.83 839 24.78 5.9 42.6 37 -7.8 17.9
23:35 1009 29.8 839 24.78 5.8 42.4 35 -8.6 16.5
23:40 1009 29.8 839 24.78 5.9 42.6 36 -8.2 17.3
23:45 1009 29.8 839 24.78 5.8 42.4 37 -7.8 17.9
23:50 1009 29.8 839 24.78 5.8 42.5 35 -8.6 16.5
23:55 1009 29.8 839 24.78 6.1 42.9 35 -8.4 16.8
24:00 1009 29.8 838 24.75 6.1 43.1 35 -8.3 17